^^
Paulen-Weather Station Historical Data
Daily Summary for September 29, 2022 Units:  Metric    English   Both
Daily Weekly Monthly Yearly Custom
  High: Low: Average:
Temperature: 14 °C 10 °C 12 °C
Dew Point: 11 °C 7 °C 8.6 °C
Humidity: 92% 71% 80%
Wind Speed: 53km/h 16km/h 31.5km/h
Wind Gust: 46km/h - -
Wind- - NE
Pressure: 1007.42 hPa 1002.78 hPa -
Precipitation: 0.2 mm    
Historical Graphs
 
 
Tabular Data for September 29, 2022
Time Temperature Dew Point Pressure Wind Wind Speed Wind Gust Humidity Rainfall Rate (Hourly) solar
00:04 14 °C 11 °C 1002.78 hPa NE 46 km/h 37 km/h 82% 0 mm 0 W/m2
00:09 14 °C 11 °C 1002.88 hPa NE 45 km/h 39 km/h 82% 0 mm 0 W/m2
00:14 14 °C 11 °C 1002.95 hPa NE 51 km/h 42 km/h 82% 0 mm 0 W/m2
00:19 14 °C 11 °C 1002.91 hPa NE 47 km/h 42 km/h 82% 0 mm 0 W/m2
00:24 14 °C 11 °C 1002.95 hPa NE 41 km/h 40 km/h 82% 0 mm 0 W/m2
00:29 14 °C 11 °C 1003.01 hPa NE 46 km/h 41 km/h 82% 0 mm 0 W/m2
00:34 14 °C 10 °C 1003.18 hPa NE 51 km/h 40 km/h 81% 0 mm 0 W/m2
00:39 14 °C 10 °C 1002.98 hPa NE 48 km/h 39 km/h 81% 0 mm 0 W/m2
00:44 13 °C 10 °C 1003.05 hPa NE 53 km/h 45 km/h 81% 0 mm 0 W/m2
00:49 14 °C 10 °C 1003.05 hPa NE 51 km/h 43 km/h 81% 0 mm 0 W/m2
00:54 13 °C 10 °C 1003.22 hPa NE 45 km/h 41 km/h 81% 0 mm 0 W/m2
00:59 13 °C 11 °C 1003.15 hPa NE 45 km/h 37 km/h 82% 0 mm 0 W/m2
01:04 13 °C 11 °C 1003.25 hPa ENE 45 km/h 37 km/h 82% 0 mm 0 W/m2
01:09 13 °C 10 °C 1003.32 hPa NE 42 km/h 33 km/h 82% 0 mm 0 W/m2
01:14 13 °C 10 °C 1003.32 hPa NE 48 km/h 41 km/h 81% 0 mm 0 W/m2
01:19 13 °C 10 °C 1003.39 hPa NE 50 km/h 46 km/h 81% 0 mm 0 W/m2
01:24 13 °C 10 °C 1003.42 hPa NE 43 km/h 37 km/h 82% 0 mm 0 W/m2
01:29 13 °C 10 °C 1003.56 hPa NE 48 km/h 42 km/h 81% 0 mm 0 W/m2
01:34 13 °C 10 °C 1003.56 hPa NE 42 km/h 36 km/h 81% 0 mm 0 W/m2
01:39 13 °C 10 °C 1003.56 hPa NE 47 km/h 40 km/h 80% 0 mm 0 W/m2
01:44 13 °C 10 °C 1003.59 hPa NE 43 km/h 37 km/h 81% 0 mm 0 W/m2
01:49 13 °C 10 °C 1003.73 hPa NE 47 km/h 38 km/h 80% 0 mm 0 W/m2
01:54 13 °C 10 °C 1003.66 hPa NE 44 km/h 37 km/h 80% 0 mm 0 W/m2
01:59 13 °C 10 °C 1003.66 hPa NE 44 km/h 36 km/h 81% 0 mm 0 W/m2
02:04 13 °C 10 °C 1003.76 hPa NE 38 km/h 35 km/h 81% 0 mm 0 W/m2
02:09 13 °C 10 °C 1003.66 hPa NE 41 km/h 37 km/h 81% 0 mm 0 W/m2
02:14 13 °C 10 °C 1003.73 hPa NNE 39 km/h 30 km/h 82% 0 mm 0 W/m2
02:19 13 °C 10 °C 1003.73 hPa NNE 36 km/h 31 km/h 83% 0 mm 0 W/m2
02:24 12 °C 10 °C 1003.73 hPa NNE 34 km/h 28 km/h 85% 0 mm 0 W/m2
02:29 12 °C 10 °C 1003.73 hPa NNE 38 km/h 30 km/h 85% 0 mm 0 W/m2
02:34 12 °C 10 °C 1003.76 hPa NNE 34 km/h 29 km/h 87% 0 mm 0 W/m2
02:39 12 °C 10 °C 1003.76 hPa NNE 32 km/h 29 km/h 88% 0 mm 0 W/m2
02:44 12 °C 10 °C 1003.83 hPa NNE 31 km/h 27 km/h 89% 0 mm 0 W/m2
02:49 12 °C 10 °C 1003.89 hPa NNE 35 km/h 29 km/h 89% 0 mm 0 W/m2
02:54 11 °C 10 °C 1003.89 hPa NNE 34 km/h 29 km/h 89% 0 mm 0 W/m2
02:59 11 °C 10 °C 1003.93 hPa NNE 33 km/h 28 km/h 89% 0 mm 0 W/m2
03:04 11 °C 10 °C 1003.96 hPa NNE 33 km/h 30 km/h 90% 0.2 mm 0 W/m2
03:09 11 °C 10 °C 1004.03 hPa NNE 31 km/h 27 km/h 91% 0.2 mm 0 W/m2
03:14 11 °C 10 °C 1003.96 hPa NNE 27 km/h 26 km/h 91% 0.2 mm 0 W/m2
03:19 11 °C 10 °C 1003.96 hPa NNE 30 km/h 22 km/h 92% 0.2 mm 0 W/m2
03:24 11 °C 10 °C 1004.03 hPa NNE 26 km/h 22 km/h 91% 0.2 mm 0 W/m2
03:29 11 °C 10 °C 1004.03 hPa N 26 km/h 22 km/h 91% 0.2 mm 0 W/m2
03:34 11 °C 10 °C 1004.06 hPa N 29 km/h 23 km/h 91% 0.2 mm 0 W/m2
03:39 11 °C 9 °C 1004.1 hPa N 31 km/h 26 km/h 90% 0.2 mm 0 W/m2
03:44 11 °C 10 °C 1004.1 hPa N 31 km/h 24 km/h 91% 0.2 mm 0 W/m2
03:49 11 °C 9 °C 1004.17 hPa NNE 31 km/h 27 km/h 90% 0.2 mm 0 W/m2
03:54 11 °C 9 °C 1004.2 hPa NNE 30 km/h 25 km/h 90% 0.2 mm 0 W/m2
03:59 11 °C 9 °C 1004.23 hPa NNE 30 km/h 27 km/h 89% 0.2 mm 0 W/m2
04:04 11 °C 9 °C 1004.34 hPa NNE 32 km/h 30 km/h 89% 0.2 mm 0 W/m2
04:09 11 °C 9 °C 1004.34 hPa NNE 30 km/h 26 km/h 89% 0 mm 0 W/m2
04:14 11 °C 9 °C 1004.34 hPa NNE 34 km/h 29 km/h 88% 0 mm 0 W/m2
04:19 11 °C 9 °C 1004.34 hPa NNE 34 km/h 28 km/h 88% 0 mm 0 W/m2
04:24 11 °C 9 °C 1004.37 hPa NNE 31 km/h 26 km/h 88% 0 mm 0 W/m2
04:29 11 °C 9 °C 1004.4 hPa NNE 32 km/h 28 km/h 88% 0 mm 0 W/m2
04:34 11 °C 9 °C 1004.37 hPa N 31 km/h 28 km/h 88% 0 mm 0 W/m2
04:39 11 °C 9 °C 1004.37 hPa N 30 km/h 25 km/h 88% 0 mm 0 W/m2
04:44 11 °C 9 °C 1004.47 hPa NNE 33 km/h 27 km/h 88% 0 mm 0 W/m2
04:49 11 °C 9 °C 1004.5 hPa NNE 31 km/h 27 km/h 88% 0 mm 0 W/m2
04:54 11 °C 9 °C 1004.5 hPa NNE 30 km/h 27 km/h 88% 0 mm 0 W/m2
04:59 11 °C 9 °C 1004.5 hPa NNE 31 km/h 27 km/h 87% 0 mm 0 W/m2
05:04 11 °C 9 °C 1004.54 hPa N 30 km/h 26 km/h 87% 0 mm 0 W/m2
05:09 11 °C 9 °C 1004.54 hPa N 32 km/h 28 km/h 87% 0 mm 0 W/m2
05:14 11 °C 8 °C 1004.54 hPa N 31 km/h 26 km/h 86% 0 mm 0 W/m2
05:19 11 °C 8 °C 1004.61 hPa NNE 33 km/h 30 km/h 86% 0 mm 0 W/m2
05:24 11 °C 8 °C 1004.57 hPa NNE 35 km/h 30 km/h 86% 0 mm 0 W/m2
05:29 11 °C 8 °C 1004.57 hPa N 34 km/h 30 km/h 86% 0 mm 0 W/m2
05:34 11 °C 8 °C 1004.5 hPa NNE 33 km/h 29 km/h 85% 0 mm 0 W/m2
05:39 11 °C 8 °C 1004.54 hPa NNE 34 km/h 32 km/h 86% 0 mm 0 W/m2
05:44 11 °C 8 °C 1004.57 hPa NNE 33 km/h 30 km/h 86% 0 mm 0 W/m2
05:49 11 °C 8 °C 1004.54 hPa NNE 34 km/h 31 km/h 86% 0 mm 0 W/m2
05:54 11 °C 8 °C 1004.67 hPa NNE 39 km/h 34 km/h 85% 0 mm 0 W/m2
05:59 11 °C 8 °C 1004.74 hPa NNE 38 km/h 33 km/h 85% 0 mm 0 W/m2
06:04 11 °C 8 °C 1004.78 hPa NNE 34 km/h 31 km/h 85% 0 mm 0 W/m2
06:09 11 °C 8 °C 1004.84 hPa NNE 34 km/h 30 km/h 85% 0 mm 0 W/m2
06:14 10 °C 8 °C 1004.88 hPa NNE 33 km/h 30 km/h 85% 0 mm 0 W/m2
06:19 10 °C 8 °C 1004.98 hPa NNE 33 km/h 29 km/h 84% 0 mm 0 W/m2
06:24 10 °C 8 °C 1004.98 hPa NNE 33 km/h 29 km/h 85% 0 mm 0 W/m2
06:29 10 °C 8 °C 1005.01 hPa NNE 32 km/h 26 km/h 84% 0 mm 0 W/m2
06:34 10 °C 8 °C 1005.11 hPa NNE 30 km/h 26 km/h 84% 0 mm 0 W/m2
06:39 10 °C 8 °C 1005.22 hPa NNE 30 km/h 26 km/h 84% 0 mm 0 W/m2
06:44 10 °C 8 °C 1005.22 hPa NNE 29 km/h 24 km/h 84% 0 mm 0 W/m2
06:49 10 °C 8 °C 1005.25 hPa N 29 km/h 26 km/h 84% 0 mm 0 W/m2
06:54 10 °C 8 °C 1005.25 hPa N 34 km/h 31 km/h 84% 0 mm 0 W/m2
06:59 10 °C 8 °C 1005.18 hPa N 33 km/h 28 km/h 83% 0 mm 0 W/m2
07:04 10 °C 8 °C 1005.25 hPa NNE 36 km/h 31 km/h 83% 0 mm 0 W/m2
07:09 11 °C 8 °C 1005.28 hPa NNE 32 km/h 28 km/h 83% 0 mm 0 W/m2
07:14 11 °C 8 °C 1005.38 hPa NNE 35 km/h 33 km/h 83% 0 mm 0 W/m2
07:19 11 °C 8 °C 1005.45 hPa NNE 33 km/h 29 km/h 83% 0 mm 0 W/m2
07:24 11 °C 8 °C 1005.45 hPa NNE 33 km/h 29 km/h 82% 0 mm 0 W/m2
07:29 11 °C 8 °C 1005.38 hPa NNE 32 km/h 26 km/h 82% 0 mm 0 W/m2
07:34 11 °C 8 °C 1005.38 hPa NNE 27 km/h 24 km/h 82% 0 mm 0 W/m2
07:39 11 °C 8 °C 1005.32 hPa NNE 28 km/h 25 km/h 83% 0 mm 5 W/m2
07:44 11 °C 8 °C 1005.28 hPa NNE 34 km/h 28 km/h 82% 0 mm 11 W/m2
07:49 11 °C 8 °C 1005.22 hPa NNE 32 km/h 28 km/h 82% 0 mm 18 W/m2
07:54 11 °C 8 °C 1005.22 hPa NNE 37 km/h 33 km/h 81% 0 mm 19 W/m2
07:59 11 °C 8 °C 1005.25 hPa NNE 37 km/h 31 km/h 82% 0 mm 23 W/m2
08:04 11 °C 8 °C 1005.35 hPa NNE 36 km/h 31 km/h 82% 0 mm 26 W/m2
08:09 11 °C 8 °C 1005.42 hPa NNE 34 km/h 31 km/h 82% 0 mm 25 W/m2
08:14 11 °C 8 °C 1005.45 hPa NNE 37 km/h 33 km/h 81% 0 mm 26 W/m2
08:19 11 °C 8 °C 1005.45 hPa NNE 35 km/h 29 km/h 81% 0 mm 35 W/m2
08:24 11 °C 8 °C 1005.59 hPa NNE 35 km/h 31 km/h 81% 0 mm 39 W/m2
08:29 11 °C 8 °C 1005.66 hPa NNE 29 km/h 25 km/h 82% 0 mm 98 W/m2
08:34 11 °C 8 °C 1005.72 hPa NNE 30 km/h 27 km/h 81% 0 mm 74 W/m2
08:39 11 °C 8 °C 1005.72 hPa NNE 32 km/h 29 km/h 81% 0 mm 28 W/m2
08:44 11 °C 8 °C 1005.72 hPa NNE 33 km/h 28 km/h 82% 0 mm 118 W/m2
08:49 11 °C 8 °C 1005.72 hPa NNE 32 km/h 28 km/h 81% 0 mm 127 W/m2
08:54 11 °C 8 °C 1005.76 hPa NNE 30 km/h 27 km/h 81% 0 mm 135 W/m2
08:59 11 °C 8 °C 1005.76 hPa NNE 33 km/h 31 km/h 80% 0 mm 146 W/m2
09:04 11 °C 8 °C 1005.79 hPa NNE 35 km/h 33 km/h 80% 0 mm 155 W/m2
09:09 11 °C 8 °C 1005.86 hPa NNE 32 km/h 28 km/h 80% 0 mm 162 W/m2
09:14 11 °C 8 °C 1005.93 hPa NNE 33 km/h 29 km/h 79% 0 mm 171 W/m2
09:19 11 °C 7 °C 1005.93 hPa NNE 36 km/h 33 km/h 79% 0 mm 183 W/m2
09:24 11 °C 7 °C 1006.03 hPa NNE 38 km/h 32 km/h 79% 0 mm 192 W/m2
09:29 11 °C 8 °C 1005.99 hPa NNE 30 km/h 25 km/h 79% 0 mm 199 W/m2
09:34 11 °C 8 °C 1006.06 hPa NNE 36 km/h 32 km/h 79% 0 mm 209 W/m2
09:39 11 °C 7 °C 1006.03 hPa NNE 33 km/h 31 km/h 78% 0 mm 218 W/m2
09:44 11 °C 8 °C 1005.99 hPa NNE 35 km/h 29 km/h 79% 0 mm 227 W/m2
09:49 11 °C 8 °C 1005.99 hPa NNE 34 km/h 25 km/h 78% 0 mm 239 W/m2
09:54 11 °C 8 °C 1006.03 hPa NNE 32 km/h 28 km/h 78% 0 mm 248 W/m2
09:59 11 °C 8 °C 1006.03 hPa NNE 31 km/h 27 km/h 78% 0 mm 255 W/m2
10:04 11 °C 7 °C 1006.1 hPa NNE 37 km/h 32 km/h 77% 0 mm 267 W/m2
10:09 11 °C 8 °C 1006.1 hPa NNE 36 km/h 33 km/h 78% 0 mm 283 W/m2
10:14 11 °C 7 °C 1006.13 hPa NNE 35 km/h 30 km/h 77% 0 mm 283 W/m2
10:19 11 °C 7 °C 1006.2 hPa NNE 36 km/h 32 km/h 78% 0 mm 88 W/m2
10:24 11 °C 8 °C 1006.23 hPa NNE 32 km/h 26 km/h 78% 0 mm 357 W/m2
10:29 11 °C 8 °C 1006.23 hPa NNE 36 km/h 31 km/h 77% 0 mm 388 W/m2
10:34 11 °C 8 °C 1006.3 hPa NNE 31 km/h 27 km/h 77% 0 mm 392 W/m2
10:39 12 °C 8 °C 1006.33 hPa NNE 30 km/h 23 km/h 77% 0 mm 343 W/m2
10:44 12 °C 8 °C 1006.33 hPa NNE 30 km/h 26 km/h 77% 0 mm 330 W/m2
10:49 12 °C 8 °C 1006.4 hPa NNE 30 km/h 24 km/h 76% 0 mm 350 W/m2
10:54 12 °C 8 °C 1006.43 hPa NNE 30 km/h 25 km/h 77% 0 mm 294 W/m2
10:59 12 °C 8 °C 1006.43 hPa NNE 35 km/h 29 km/h 77% 0 mm 359 W/m2
11:04 12 °C 8 °C 1006.47 hPa NNE 31 km/h 27 km/h 77% 0 mm 408 W/m2
11:09 12 °C 8 °C 1006.54 hPa NE 29 km/h 24 km/h 77% 0 mm 408 W/m2
11:14 12 °C 8 °C 1006.6 hPa NE 34 km/h 33 km/h 76% 0 mm 417 W/m2
11:19 12 °C 8 °C 1006.57 hPa NNE 35 km/h 29 km/h 76% 0 mm 404 W/m2
11:24 12 °C 8 °C 1006.54 hPa NNE 28 km/h 30 km/h 76% 0 mm 403 W/m2
11:29 12 °C 8 °C 1006.57 hPa NNE 36 km/h 33 km/h 75% 0 mm 404 W/m2
11:34 12 °C 8 °C 1006.6 hPa NE 35 km/h 33 km/h 75% 0 mm 410 W/m2
11:39 12 °C 8 °C 1006.6 hPa NE 29 km/h 24 km/h 76% 0 mm 406 W/m2
11:44 12 °C 8 °C 1006.47 hPa NNE 29 km/h 26 km/h 76% 0 mm 413 W/m2
11:49 12 °C 8 °C 1006.5 hPa NNE 28 km/h 24 km/h 75% 0 mm 418 W/m2
11:54 12 °C 8 °C 1006.54 hPa NNE 29 km/h 24 km/h 74% 0 mm 424 W/m2
11:59 12 °C 8 °C 1006.57 hPa NNE 30 km/h 25 km/h 74% 0 mm 438 W/m2
12:04 12 °C 8 °C 1006.57 hPa NE 26 km/h 25 km/h 74% 0 mm 462 W/m2
12:09 12 °C 8 °C 1006.67 hPa NE 26 km/h 22 km/h 75% 0 mm 522 W/m2
12:14 12 °C 8 °C 1006.67 hPa NE 28 km/h 27 km/h 76% 0 mm 543 W/m2
12:19 12 °C 8 °C 1006.67 hPa NE 29 km/h 27 km/h 73% 0 mm 552 W/m2
12:24 12 °C 8 °C 1006.74 hPa NE 33 km/h 26 km/h 74% 0 mm 547 W/m2
12:29 12 °C 8 °C 1006.71 hPa NE 29 km/h 25 km/h 74% 0 mm 494 W/m2
12:34 12 °C 8 °C 1006.71 hPa NNE 28 km/h 23 km/h 74% 0 mm 536 W/m2
12:39 12 °C 8 °C 1006.67 hPa NNE 26 km/h 24 km/h 74% 0 mm 536 W/m2
12:44 13 °C 8 °C 1006.71 hPa NNE 29 km/h 24 km/h 73% 0 mm 527 W/m2
12:49 13 °C 8 °C 1006.67 hPa NE 26 km/h 22 km/h 73% 0 mm 568 W/m2
12:54 13 °C 8 °C 1006.64 hPa NE 33 km/h 28 km/h 74% 0 mm 559 W/m2
12:59 13 °C 8 °C 1006.64 hPa NE 31 km/h 25 km/h 74% 0 mm 545 W/m2
13:04 13 °C 8 °C 1006.64 hPa NE 32 km/h 28 km/h 73% 0 mm 550 W/m2
13:09 13 °C 8 °C 1006.64 hPa NE 24 km/h 21 km/h 73% 0 mm 524 W/m2
13:14 13 °C 8 °C 1006.71 hPa ENE 28 km/h 24 km/h 74% 0 mm 510 W/m2
13:19 13 °C 8 °C 1006.74 hPa ENE 32 km/h 26 km/h 74% 0 mm 522 W/m2
13:24 13 °C 9 °C 1006.77 hPa ENE 24 km/h 20 km/h 75% 0 mm 538 W/m2
13:29 13 °C 9 °C 1006.87 hPa ENE 30 km/h 25 km/h 76% 0 mm 561 W/m2
13:34 13 °C 9 °C 1006.91 hPa ENE 30 km/h 25 km/h 77% 0 mm 517 W/m2
13:39 13 °C 9 °C 1006.91 hPa ENE 31 km/h 23 km/h 78% 0 mm 519 W/m2
13:44 13 °C 9 °C 1006.91 hPa ENE 33 km/h 27 km/h 78% 0 mm 499 W/m2
13:49 13 °C 9 °C 1006.91 hPa NE 28 km/h 24 km/h 78% 0 mm 473 W/m2
13:54 13 °C 9 °C 1006.91 hPa ENE 28 km/h 25 km/h 77% 0 mm 454 W/m2
13:59 13 °C 9 °C 1006.84 hPa ENE 27 km/h 24 km/h 76% 0 mm 452 W/m2
14:04 13 °C 9 °C 1006.91 hPa ENE 32 km/h 25 km/h 77% 0 mm 480 W/m2
14:09 13 °C 9 °C 1006.91 hPa ENE 26 km/h 21 km/h 77% 0 mm 480 W/m2
14:14 13 °C 9 °C 1006.94 hPa ENE 28 km/h 24 km/h 76% 0 mm 529 W/m2
14:19 13 °C 8 °C 1007.01 hPa NE 26 km/h 22 km/h 74% 0 mm 529 W/m2
14:24 13 °C 8 °C 1006.98 hPa NE 24 km/h 20 km/h 72% 0 mm 439 W/m2
14:29 13 °C 8 °C 1007.01 hPa NE 22 km/h 18 km/h 73% 0 mm 436 W/m2
14:34 13 °C 8 °C 1007.04 hPa NE 30 km/h 24 km/h 73% 0 mm 446 W/m2
14:39 13 °C 8 °C 1007.08 hPa NE 23 km/h 23 km/h 73% 0 mm 441 W/m2
14:44 13 °C 8 °C 1007.08 hPa NE 22 km/h 19 km/h 73% 0 mm 427 W/m2
14:49 13 °C 8 °C 1007.08 hPa NE 24 km/h 21 km/h 72% 0 mm 425 W/m2
14:54 13 °C 8 °C 1007.08 hPa NE 23 km/h 19 km/h 72% 0 mm 432 W/m2
14:59 13 °C 8 °C 1007.15 hPa ENE 19 km/h 16 km/h 72% 0 mm 452 W/m2
15:04 13 °C 8 °C 1007.15 hPa ENE 19 km/h 17 km/h 72% 0 mm 485 W/m2
15:09 13 °C 8 °C 1007.11 hPa ENE 20 km/h 17 km/h 72% 0 mm 485 W/m2
15:14 13 °C 8 °C 1007.08 hPa ENE 21 km/h 17 km/h 72% 0 mm 480 W/m2
15:19 13 °C 8 °C 1007.04 hPa ENE 20 km/h 17 km/h 73% 0 mm 466 W/m2
15:24 13 °C 9 °C 1007.04 hPa ENE 20 km/h 16 km/h 74% 0 mm 466 W/m2
15:29 13 °C 9 °C 1007.01 hPa ENE 21 km/h 17 km/h 76% 0 mm 478 W/m2
15:34 13 °C 9 °C 1007.04 hPa ENE 24 km/h 19 km/h 77% 0 mm 563 W/m2
15:39 13 °C 9 °C 1007.08 hPa E 24 km/h 24 km/h 77% 0 mm 563 W/m2
15:44 13 °C 9 °C 1007.01 hPa E 27 km/h 26 km/h 77% 0 mm 471 W/m2
15:49 13 °C 9 °C 1007.04 hPa NE 25 km/h 21 km/h 76% 0 mm 438 W/m2
15:54 13 °C 8 °C 1007.04 hPa NE 23 km/h 21 km/h 72% 0 mm 325 W/m2
15:59 13 °C 8 °C 1007.08 hPa NE 21 km/h 20 km/h 72% 0 mm 51 W/m2
16:04 13 °C 8 °C 1007.11 hPa NE 20 km/h 19 km/h 73% 0 mm 95 W/m2
16:09 13 °C 8 °C 1007.08 hPa NE 16 km/h 15 km/h 74% 0 mm 315 W/m2
16:14 13 °C 8 °C 1007.11 hPa NE 17 km/h 13 km/h 74% 0 mm 315 W/m2
16:19 13 °C 8 °C 1007.04 hPa NE 18 km/h 17 km/h 73% 0 mm 350 W/m2
16:24 13 °C 8 °C 1007.04 hPa ENE 20 km/h 17 km/h 72% 0 mm 401 W/m2
16:29 13 °C 9 °C 1007.15 hPa NE 21 km/h 17 km/h 72% 0 mm 387 W/m2
16:34 13 °C 8 °C 1007.18 hPa NE 25 km/h 24 km/h 71% 0 mm 294 W/m2
16:39 13 °C 8 °C 1007.21 hPa NE 23 km/h 20 km/h 71% 0 mm 67 W/m2
16:44 13 °C 8 °C 1007.21 hPa NE 23 km/h 21 km/h 71% 0 mm 104 W/m2
16:49 13 °C 8 °C 1007.21 hPa ENE 22 km/h 20 km/h 71% 0 mm 237 W/m2
16:54 13 °C 8 °C 1007.21 hPa NE 19 km/h 17 km/h 71% 0 mm 241 W/m2
16:59 13 °C 8 °C 1007.18 hPa NE 18 km/h 16 km/h 71% 0 mm 232 W/m2
17:04 13 °C 8 °C 1007.18 hPa NE 16 km/h 14 km/h 71% 0 mm 227 W/m2
17:09 13 °C 8 °C 1007.28 hPa ENE 18 km/h 17 km/h 72% 0 mm 262 W/m2
17:14 13 °C 9 °C 1007.32 hPa E 21 km/h 17 km/h 75% 0 mm 234 W/m2
17:19 13 °C 9 °C 1007.35 hPa ENE 21 km/h 17 km/h 77% 0 mm 227 W/m2
17:24 13 °C 9 °C 1007.35 hPa E 20 km/h 14 km/h 77% 0 mm 211 W/m2
17:29 13 °C 9 °C 1007.35 hPa ENE 18 km/h 14 km/h 77% 0 mm 174 W/m2
17:34 13 °C 9 °C 1007.42 hPa NE 17 km/h 15 km/h 77% 0 mm 79 W/m2
Compliments of Weather Underground - 2 mb